Time;durP1;ratioP1;P1;durP2;ratioP2;P2;SDS_P1;SDS_P2;PMS_P1;PMS_P2;Temp;Humidity;BMP_temperature;BMP_pressure;BME280_temperature;BME280_humidity;BME280_pressure;Samples;Min_cycle;Max_cycle;Signal;HPM_P1;HPM_P2
2021/12/05 00:21:57;;;;;;;43.42;33.08;;;;;;;;;;5012338;28;20504;-63
2021/12/05 00:24:27;;;;;;;43.95;32.35;;;;;;;;;;5012638;28;20489;-62
2021/12/05 00:27:03;;;;;;;43.10;30.75;;;;;;;;;;5012379;28;20042;-62
2021/12/05 01:04:00;;;;;;;43.42;31.35;;;;;;;;;;5015756;28;20473;-62
2021/12/05 01:12:08;;;;;;;36.30;30.13;;;;;;;;;;4998301;28;20045;-62
2021/12/05 01:14:52;;;;;;;40.22;28.77;;;;;;;;;;5015428;28;20038;-63
2021/12/05 01:17:27;;;;;;;36.33;28.67;;;;;;;;;;4998134;28;20054;-60
2021/12/05 01:19:56;;;;;;;35.15;27.48;;;;;;;;;;4997905;28;20045;-62
2021/12/05 01:22:24;;;;;;;31.80;28.48;;;;;;;;;;4998257;28;20042;-62
2021/12/05 01:30:35;;;;;;;37.65;28.42;;;;;;;;;;4986693;28;20514;-62
2021/12/05 01:38:24;;;;;;;39.30;26.25;;;;;;;;;;4997458;28;20046;-62
2021/12/05 01:44:09;;;;;;;34.70;30.27;;;;;;;;;;4990564;28;20052;-61
2021/12/05 01:47:16;;;;;;;35.15;30.13;;;;;;;;;;5013091;28;20457;-61
2021/12/05 01:53:09;;;;;;;36.88;29.83;;;;;;;;;;4997220;28;20404;-61
2021/12/05 02:11:54;;;;;;;37.58;31.73;;;;;;;;;;5014978;28;20046;-61
2021/12/05 02:30:56;;;;;;;33.25;29.80;;;;;;;;;;4996375;28;20038;-63
2021/12/05 02:36:24;;;;;;;34.78;29.17;;;;;;;;;;4996249;28;20046;-63
2021/12/05 02:41:22;;;;;;;33.20;27.20;;;;;;;;;;4996233;28;20044;-63
2021/12/05 02:47:03;;;;;;;34.63;29.08;;;;;;;;;;4987671;28;20042;-63
2021/12/05 02:49:33;;;;;;;37.47;31.48;;;;;;;;;;4996442;28;20100;-63
2021/12/05 02:52:05;;;;;;;34.95;29.98;;;;;;;;;;5013656;28;20662;-64
2021/12/05 02:54:42;;;;;;;37.75;30.00;;;;;;;;;;5013868;28;20046;-62
2021/12/05 02:57:09;;;;;;;43.42;29.40;;;;;;;;;;5013880;28;20051;-63
2021/12/05 02:59:44;;;;;;;34.75;27.65;;;;;;;;;;4996640;28;20053;-62
2021/12/05 03:02:14;;;;;;;34.53;27.42;;;;;;;;;;4996000;28;20046;-61
2021/12/05 03:04:49;;;;;;;38.08;30.55;;;;;;;;;;4995977;28;20045;-61
2021/12/05 03:07:20;;;;;;;40.22;29.48;;;;;;;;;;4995970;28;20041;-63
2021/12/05 03:09:47;;;;;;;33.08;27.27;;;;;;;;;;5013651;28;20096;-62
2021/12/05 03:12:18;;;;;;;32.45;26.73;;;;;;;;;;5013512;28;20584;-62
2021/12/05 03:14:46;;;;;;;36.03;29.67;;;;;;;;;;4995663;28;20099;-62
2021/12/05 03:17:14;;;;;;;31.15;27.63;;;;;;;;;;4976537;28;20050;-62
2021/12/05 03:19:41;;;;;;;34.10;27.38;;;;;;;;;;5002531;28;20042;-61
2021/12/05 03:22:09;;;;;;;34.97;28.60;;;;;;;;;;5011698;28;20042;-61
2021/12/05 03:24:36;;;;;;;34.10;29.23;;;;;;;;;;5013057;28;20038;-61
2021/12/05 03:27:03;;;;;;;31.90;28.45;;;;;;;;;;4995775;28;20564;-61
2021/12/05 03:29:30;;;;;;;34.28;27.40;;;;;;;;;;4991926;28;20046;-62
2021/12/05 03:31:58;;;;;;;33.38;29.80;;;;;;;;;;4992161;28;20042;-62
2021/12/05 03:34:27;;;;;;;33.28;28.92;;;;;;;;;;4992249;28;20047;-61
2021/12/05 03:36:59;;;;;;;32.30;27.70;;;;;;;;;;4988700;28;21042;-61
2021/12/05 03:39:29;;;;;;;38.60;28.73;;;;;;;;;;4996908;28;20137;-61
2021/12/05 03:41:57;;;;;;;29.67;26.55;;;;;;;;;;4993095;28;20042;-61
2021/12/05 03:44:30;;;;;;;35.53;28.80;;;;;;;;;;4992185;28;20125;-62
2021/12/05 03:46:59;;;;;;;31.83;27.15;;;;;;;;;;4991886;28;20046;-61
2021/12/05 03:49:28;;;;;;;29.30;26.20;;;;;;;;;;4993625;28;20446;-61
2021/12/05 03:52:04;;;;;;;34.55;26.90;;;;;;;;;;4991720;28;20049;-62
2021/12/05 03:54:31;;;;;;;32.30;29.08;;;;;;;;;;4992084;28;20505;-62
2021/12/05 03:56:59;;;;;;;31.50;28.20;;;;;;;;;;4991906;28;20441;-62
2021/12/05 03:59:30;;;;;;;29.40;26.25;;;;;;;;;;4992205;28;20042;-62
2021/12/05 04:01:58;;;;;;;30.45;27.20;;;;;;;;;;4991688;28;20046;-61
2021/12/05 04:04:28;;;;;;;29.80;26.48;;;;;;;;;;4991867;28;20120;-61
2021/12/05 04:06:56;;;;;;;28.85;25.40;;;;;;;;;;4991636;28;20133;-61
2021/12/05 04:09:24;;;;;;;27.45;23.73;;;;;;;;;;4991825;28;20045;-61
2021/12/05 04:12:01;;;;;;;32.28;26.55;;;;;;;;;;4991993;28;20519;-62
2021/12/05 04:14:48;;;;;;;29.67;25.08;;;;;;;;;;4991670;28;20567;-62
2021/12/05 04:17:17;;;;;;;28.92;25.33;;;;;;;;;;4991960;28;20042;-61
2021/12/05 04:19:44;;;;;;;28.83;25.33;;;;;;;;;;4991750;28;20051;-62
2021/12/05 04:22:11;;;;;;;29.23;23.67;;;;;;;;;;4992003;28;20046;-61
2021/12/05 04:24:41;;;;;;;26.08;23.02;;;;;;;;;;4991526;28;20046;-61
2021/12/05 04:27:09;;;;;;;25.30;21.95;;;;;;;;;;4991877;28;20046;-61
2021/12/05 04:29:37;;;;;;;29.52;23.35;;;;;;;;;;4991611;28;20504;-62
2021/12/05 04:32:06;;;;;;;25.60;22.73;;;;;;;;;;4992827;28;20047;-62
2021/12/05 04:34:37;;;;;;;25.55;22.45;;;;;;;;;;4995448;28;20085;-62
2021/12/05 04:37:06;;;;;;;27.45;23.33;;;;;;;;;;4998043;28;20565;-62
2021/12/05 04:39:34;;;;;;;29.15;25.20;;;;;;;;;;4993222;28;20042;-62
2021/12/05 04:42:01;;;;;;;27.40;23.20;;;;;;;;;;5001164;28;20047;-62
2021/12/05 04:44:29;;;;;;;26.65;21.92;;;;;;;;;;4996736;28;20042;-62
2021/12/05 04:47:00;;;;;;;27.80;22.98;;;;;;;;;;4995289;28;20046;-62
2021/12/05 04:49:28;;;;;;;25.13;20.83;;;;;;;;;;4995640;28;20053;-63
2021/12/05 04:51:56;;;;;;;24.95;21.42;;;;;;;;;;4996366;28;20043;-62
2021/12/05 04:54:23;;;;;;;26.73;22.45;;;;;;;;;;4995161;28;20126;-62
2021/12/05 04:56:50;;;;;;;29.52;22.83;;;;;;;;;;4995598;28;20046;-62
2021/12/05 04:59:29;;;;;;;32.55;26.38;;;;;;;;;;4995201;28;20456;-62
2021/12/05 05:01:59;;;;;;;26.23;21.60;;;;;;;;;;4994725;28;20043;-62
2021/12/05 05:04:28;;;;;;;27.05;21.58;;;;;;;;;;4996334;28;20077;-62
2021/12/05 05:07:11;;;;;;;23.55;20.60;;;;;;;;;;4995725;28;20042;-62
2021/12/05 05:09:38;;;;;;;26.33;21.30;;;;;;;;;;4996344;28;20395;-62
2021/12/05 05:12:05;;;;;;;26.83;22.65;;;;;;;;;;4996127;28;20387;-62
2021/12/05 05:14:32;;;;;;;26.65;20.35;;;;;;;;;;4995910;28;20046;-61
2021/12/05 05:16:59;;;;;;;28.70;22.70;;;;;;;;;;4996028;28;20044;-61
2021/12/05 05:19:31;;;;;;;25.35;21.13;;;;;;;;;;4994153;28;20569;-62
2021/12/05 05:22:24;;;;;;;27.67;21.48;;;;;;;;;;4995935;28;20051;-61
2021/12/05 05:41:37;;;;;;;29.13;24.15;;;;;;;;;;5014593;28;20050;-61
2021/12/05 05:46:18;;;;;;;21.98;18.30;;;;;;;;;;4998367;28;20042;-60
2021/12/05 05:48:52;;;;;;;19.65;15.75;;;;;;;;;;5015241;28;20465;-61
2021/12/05 05:51:19;;;;;;;14.33;12.47;;;;;;;;;;5015109;28;20396;-61
2021/12/05 05:53:48;;;;;;;14.68;11.70;;;;;;;;;;5014721;28;20044;-61
2021/12/05 05:56:20;;;;;;;12.60;11.30;;;;;;;;;;5014675;28;20050;-61
2021/12/05 05:59:15;;;;;;;14.65;12.77;;;;;;;;;;5014831;28;20080;-61
2021/12/05 06:03:21;;;;;;;14.82;12.45;;;;;;;;;;5014286;28;20042;-61
2021/12/05 06:04:29;;;;;;;13.38;11.70;;;;;;;;;;5014147;28;20124;-61
2021/12/05 06:06:56;;;;;;;15.68;12.38;;;;;;;;;;5014191;28;20496;-61
2021/12/05 06:09:23;;;;;;;15.05;13.45;;;;;;;;;;5014810;28;20119;-61
2021/12/05 06:11:50;;;;;;;14.35;11.18;;;;;;;;;;5014487;28;20049;-61
2021/12/05 06:14:17;;;;;;;16.05;13.00;;;;;;;;;;5014473;28;20408;-61
2021/12/05 06:16:44;;;;;;;12.85;10.32;;;;;;;;;;5014324;28;20096;-61
2021/12/05 06:19:12;;;;;;;13.75;11.35;;;;;;;;;;5013990;28;20046;-61
2021/12/05 06:21:39;;;;;;;11.75;10.35;;;;;;;;;;5014273;28;20492;-61
2021/12/05 06:24:06;;;;;;;13.35;10.48;;;;;;;;;;5013892;28;20049;-60
2021/12/05 06:26:35;;;;;;;12.35;10.57;;;;;;;;;;5014189;28;20384;-61
2021/12/05 06:29:15;;;;;;;11.27;9.18;;;;;;;;;;5013607;28;20077;-61
2021/12/05 06:39:45;;;;;;;13.80;8.45;;;;;;;;;;5013546;28;20042;-60
2021/12/05 06:42:48;;;;;;;11.13;6.60;;;;;;;;;;5013824;28;20503;-63
2021/12/05 06:48:01;;;;;;;8.73;7.78;;;;;;;;;;5013472;28;20504;-63
2021/12/05 06:50:29;;;;;;;10.05;8.38;;;;;;;;;;5013469;28;20046;-62
2021/12/05 06:52:56;;;;;;;8.73;7.25;;;;;;;;;;5013702;28;20096;-61
2021/12/05 06:55:23;;;;;;;8.48;7.57;;;;;;;;;;5013318;28;20049;-62
2021/12/05 06:57:50;;;;;;;10.98;8.60;;;;;;;;;;5013463;28;20053;-63
2021/12/05 07:00:23;;;;;;;9.90;8.38;;;;;;;;;;5013757;28;20421;-61
2021/12/05 07:02:50;;;;;;;9.45;8.40;;;;;;;;;;5013372;28;20066;-59
2021/12/05 07:07:44;;;;;;;8.38;7.15;;;;;;;;;;5012866;28;20046;-61
2021/12/05 07:10:14;;;;;;;10.00;7.65;;;;;;;;;;5012923;28;20574;-62
2021/12/05 07:15:45;;;;;;;;;;;;;;;;;;5004596;28;20054;-60
2021/12/05 07:26:07;;;;;;;10.95;8.50;;;;;;;;;;5009952;28;20041;-61
2021/12/05 07:42:24;;;;;;;10.15;8.05;;;;;;;;;;5005748;28;20369;-61
2021/12/05 07:44:56;;;;;;;9.32;7.88;;;;;;;;;;4992772;28;21642;-61
2021/12/05 07:47:29;;;;;;;9.90;8.88;;;;;;;;;;5005629;28;20507;-62
2021/12/05 07:49:57;;;;;;;10.70;8.50;;;;;;;;;;5008722;28;20045;-62
2021/12/05 07:52:27;;;;;;;8.88;7.93;;;;;;;;;;5008803;28;20060;-62
2021/12/05 07:55:09;;;;;;;12.20;10.70;;;;;;;;;;5004064;28;20050;-61
2021/12/05 07:57:52;;;;;;;18.15;13.18;;;;;;;;;;5010616;28;20488;-61
2021/12/05 08:00:28;;;;;;;14.55;12.63;;;;;;;;;;5008558;28;20049;-60
2021/12/05 08:16:47;;;;;;;17.00;12.55;;;;;;;;;;5009284;28;20053;-61
2021/12/05 08:19:15;;;;;;;15.18;13.25;;;;;;;;;;5010262;28;20037;-62
2021/12/05 08:21:42;;;;;;;20.25;15.00;;;;;;;;;;5007093;28;20038;-60
2021/12/05 08:24:09;;;;;;;19.05;15.65;;;;;;;;;;5009836;28;20034;-61
2021/12/05 08:26:36;;;;;;;15.52;13.98;;;;;;;;;;5012247;28;20056;-59
2021/12/05 10:07:19;;;;;;;33.15;29.00;;;;;;;;;;4967803;28;20083;-61
2021/12/05 10:15:31;;;;;;;37.03;29.17;;;;;;;;;;5004419;28;20038;-62
2021/12/05 10:37:26;;;;;;;48.60;38.50;;;;;;;;;;4995488;28;20133;-60
2021/12/05 10:40:05;;;;;;;42.58;31.52;;;;;;;;;;4995382;28;20041;-60
2021/12/05 10:42:43;;;;;;;44.03;29.02;;;;;;;;;;4995550;28;20058;-61
2021/12/05 10:45:19;;;;;;;34.15;27.30;;;;;;;;;;4999512;28;20034;-60
2021/12/05 10:47:49;;;;;;;33.25;26.85;;;;;;;;;;4995904;28;20564;-61
2021/12/05 10:50:42;;;;;;;34.92;28.55;;;;;;;;;;4995503;28;20047;-61
2021/12/05 10:53:22;;;;;;;33.25;25.83;;;;;;;;;;4994811;28;20038;-61
2021/12/05 10:55:57;;;;;;;31.75;27.92;;;;;;;;;;4999151;28;20052;-61
2021/12/05 10:58:31;;;;;;;36.50;29.40;;;;;;;;;;4995874;28;20050;-60
2021/12/05 11:01:31;;;;;;;30.58;27.27;;;;;;;;;;4995811;28;20070;-60
2021/12/05 11:04:02;;;;;;;39.90;28.88;;;;;;;;;;4994024;28;20038;-60
2021/12/05 11:06:33;;;;;;;31.90;26.58;;;;;;;;;;5007310;28;20480;-60
2021/12/05 11:09:15;;;;;;;39.55;31.48;;;;;;;;;;5008521;28;20096;-60
2021/12/05 11:11:45;;;;;;;35.65;27.45;;;;;;;;;;5009540;28;20049;-61
2021/12/05 11:14:21;;;;;;;50.53;38.40;;;;;;;;;;5006319;28;20486;-61
2021/12/05 11:16:55;;;;;;;60.58;47.25;;;;;;;;;;5005238;28;20046;-60
2021/12/05 11:19:33;;;;;;;48.65;40.13;;;;;;;;;;5010417;28;20073;-60
2021/12/05 11:22:07;;;;;;;40.47;33.10;;;;;;;;;;5011212;28;20038;-60
2021/12/05 11:24:51;;;;;;;35.03;29.57;;;;;;;;;;5007508;28;20052;-62
2021/12/05 11:27:26;;;;;;;36.10;27.92;;;;;;;;;;4996668;28;20363;-60
2021/12/05 11:30:02;;;;;;;28.40;25.33;;;;;;;;;;4995973;28;20691;-61
2021/12/05 11:32:40;;;;;;;28.48;24.30;;;;;;;;;;4996244;28;20055;-61
2021/12/05 11:35:30;;;;;;;29.10;24.63;;;;;;;;;;4995991;28;20203;-62
2021/12/05 11:38:16;;;;;;;30.58;27.25;;;;;;;;;;4995930;28;20045;-59
2021/12/05 11:40:52;;;;;;;29.02;25.33;;;;;;;;;;4996958;28;20100;-61
2021/12/05 11:43:28;;;;;;;30.95;23.23;;;;;;;;;;4995997;28;20096;-62
2021/12/05 11:46:15;;;;;;;26.13;22.90;;;;;;;;;;4996657;28;20073;-61
2021/12/05 11:49:10;;;;;;;28.48;23.60;;;;;;;;;;4995046;28;20042;-61
2021/12/05 11:51:47;;;;;;;27.00;22.92;;;;;;;;;;4997019;28;20152;-63
2021/12/05 11:54:16;;;;;;;27.73;21.83;;;;;;;;;;4997237;28;20122;-62
2021/12/05 11:56:54;;;;;;;25.73;22.52;;;;;;;;;;5001968;28;20043;-60
2021/12/05 11:59:42;;;;;;;32.05;22.75;;;;;;;;;;5002977;28;20497;-63
2021/12/05 12:02:20;;;;;;;24.33;20.90;;;;;;;;;;4997041;28;20057;-62
2021/12/05 12:04:55;;;;;;;29.40;20.35;;;;;;;;;;4993609;28;20045;-61
2021/12/05 12:07:37;;;;;;;31.17;23.30;;;;;;;;;;4994708;28;20046;-62
2021/12/05 12:10:15;;;;;;;30.33;22.40;;;;;;;;;;4995773;28;20041;-61
2021/12/05 12:12:48;;;;;;;24.33;21.17;;;;;;;;;;4993703;28;20637;-62
2021/12/05 12:15:16;;;;;;;26.17;20.15;;;;;;;;;;4993137;28;20606;-61
2021/12/05 12:17:46;;;;;;;24.55;19.33;;;;;;;;;;4994438;28;20070;-62
2021/12/05 12:20:22;;;;;;;25.20;20.63;;;;;;;;;;4993582;28;20043;-61
2021/12/05 12:22:50;;;;;;;21.48;18.45;;;;;;;;;;4991819;28;20453;-62
2021/12/05 12:25:21;;;;;;;25.23;20.35;;;;;;;;;;4988190;28;20054;-62
2021/12/05 12:27:49;;;;;;;21.17;18.95;;;;;;;;;;5003504;28;20057;-62
2021/12/05 12:30:25;;;;;;;21.48;18.90;;;;;;;;;;5007631;28;20133;-63
2021/12/05 12:33:09;;;;;;;21.13;18.88;;;;;;;;;;5008435;28;20050;-63
2021/12/05 12:35:37;;;;;;;23.25;18.98;;;;;;;;;;5006203;28;20054;-61
2021/12/05 12:38:08;;;;;;;23.27;20.17;;;;;;;;;;5007195;28;20371;-60
2021/12/05 12:41:03;;;;;;;21.65;18.80;;;;;;;;;;5006223;28;20049;-61
2021/12/05 12:43:58;;;;;;;24.40;19.85;;;;;;;;;;5005393;28;20038;-62
2021/12/05 12:46:24;;;;;;;;;;;;;;;;;;4988291;28;20068;-60
2021/12/05 12:48:56;;;;;;;21.05;18.75;;;;;;;;;;5008680;28;19921;-61
2021/12/05 12:51:45;;;;;;;24.00;19.90;;;;;;;;;;5003912;28;20136;-61
2021/12/05 12:54:18;;;;;;;21.80;18.83;;;;;;;;;;5002104;28;20137;-62
2021/12/05 12:57:07;;;;;;;26.77;20.02;;;;;;;;;;5012078;28;20042;-62
2021/12/05 12:59:38;;;;;;;26.42;21.42;;;;;;;;;;5012617;28;20041;-61
2021/12/05 13:10:22;;;;;;;24.63;20.35;;;;;;;;;;5011801;28;20042;-62
2021/12/05 13:13:11;;;;;;;28.98;21.17;;;;;;;;;;5010007;28;20045;-61
2021/12/05 13:15:52;;;;;;;34.30;22.95;;;;;;;;;;5001444;28;20050;-61
2021/12/05 13:18:23;;;;;;;27.80;22.17;;;;;;;;;;5013654;28;20069;-63
2021/12/05 13:20:56;;;;;;;26.58;22.15;;;;;;;;;;5010139;28;20038;-64
2021/12/05 13:23:52;;;;;;;25.48;22.27;;;;;;;;;;5011612;28;20049;-62
2021/12/05 13:26:28;;;;;;;26.48;21.77;;;;;;;;;;5003896;28;20046;-62
2021/12/05 13:29:16;;;;;;;28.90;22.13;;;;;;;;;;5012825;28;20504;-61
2021/12/05 13:32:11;;;;;;;26.67;21.88;;;;;;;;;;5011970;28;20054;-62
2021/12/05 13:34:40;;;;;;;23.23;18.40;;;;;;;;;;5008393;28;20049;-62
2021/12/05 13:37:10;;;;;;;22.40;18.92;;;;;;;;;;5008708;28;20049;-60
2021/12/05 13:39:53;;;;;;;22.45;18.75;;;;;;;;;;5012861;28;20061;-60
2021/12/05 13:42:37;;;;;;;24.88;18.52;;;;;;;;;;5011123;28;20065;-65
2021/12/05 13:45:08;;;;;;;23.05;20.40;;;;;;;;;;5009716;28;20061;-60
2021/12/05 13:47:43;;;;;;;22.70;19.25;;;;;;;;;;5005778;28;20034;-60
2021/12/05 13:50:19;;;;;;;;;;;;;;;;;;5013196;28;20046;-62
2021/12/05 13:52:59;;;;;;;24.33;21.20;;;;;;;;;;5013987;28;20322;-59
2021/12/05 13:55:39;;;;;;;25.52;20.00;;;;;;;;;;5012211;28;20132;-57
2021/12/05 13:58:20;;;;;;;26.73;20.60;;;;;;;;;;5014765;28;20623;-57
2021/12/05 14:01:19;;;;;;;26.77;21.63;;;;;;;;;;5014667;28;20045;-57
2021/12/05 14:04:08;;;;;;;25.65;20.75;;;;;;;;;;5007491;28;20049;-56
2021/12/05 14:06:36;;;;;;;27.10;20.77;;;;;;;;;;5014318;28;20129;-58
2021/12/05 14:09:25;;;;;;;24.83;21.88;;;;;;;;;;5007368;28;20045;-58
2021/12/05 14:12:31;;;;;;;30.27;25.90;;;;;;;;;;5014101;28;20042;-57
2021/12/05 14:15:10;;;;;;;27.65;22.65;;;;;;;;;;5001747;28;20041;-58
2021/12/05 14:17:42;;;;;;;37.17;30.63;;;;;;;;;;5014035;28;20050;-58
2021/12/05 14:20:25;;;;;;;29.05;25.35;;;;;;;;;;4995712;28;20038;-57
2021/12/05 14:22:56;;;;;;;30.20;24.08;;;;;;;;;;5014295;28;20116;-60
2021/12/05 14:25:25;;;;;;;28.17;24.58;;;;;;;;;;5007901;28;20042;-58
2021/12/05 14:27:58;;;;;;;28.75;22.67;;;;;;;;;;5013833;28;20058;-58
2021/12/05 14:30:29;;;;;;;26.67;23.80;;;;;;;;;;5013977;28;20085;-58
2021/12/05 14:32:59;;;;;;;30.95;27.38;;;;;;;;;;5012507;28;20042;-57
2021/12/05 14:35:36;;;;;;;25.35;22.58;;;;;;;;;;5012117;28;20497;-56
2021/12/05 14:38:06;;;;;;;25.20;22.30;;;;;;;;;;5011653;28;20071;-55
2021/12/05 14:40:35;;;;;;;24.13;20.92;;;;;;;;;;5011934;28;20073;-57
2021/12/05 14:43:11;;;;;;;23.23;20.92;;;;;;;;;;5013679;28;20396;-57
2021/12/05 14:45:40;;;;;;;27.67;22.00;;;;;;;;;;5013973;28;20053;-59
2021/12/05 14:48:13;;;;;;;27.63;22.38;;;;;;;;;;5013774;28;20042;-59
2021/12/05 14:50:51;;;;;;;24.70;21.45;;;;;;;;;;5013821;28;20048;-58
2021/12/05 14:53:19;;;;;;;23.17;20.52;;;;;;;;;;5013715;28;20115;-58
2021/12/05 14:55:48;;;;;;;24.77;22.10;;;;;;;;;;5013722;28;20489;-58
2021/12/05 14:58:16;;;;;;;21.80;19.50;;;;;;;;;;5014131;28;20038;-58
2021/12/05 15:00:47;;;;;;;24.30;21.75;;;;;;;;;;5013818;28;20066;-58
2021/12/05 15:03:21;;;;;;;24.58;21.35;;;;;;;;;;5013780;28;20042;-57
2021/12/05 15:05:52;;;;;;;22.87;19.87;;;;;;;;;;5013345;28;20081;-58
2021/12/05 15:08:21;;;;;;;26.10;20.52;;;;;;;;;;5013575;28;20038;-58
2021/12/05 15:10:52;;;;;;;22.20;19.80;;;;;;;;;;5013371;28;20038;-58
2021/12/05 15:13:20;;;;;;;22.15;19.45;;;;;;;;;;5013745;28;20120;-59
2021/12/05 15:15:47;;;;;;;26.88;22.15;;;;;;;;;;5013235;28;20088;-59
2021/12/05 15:18:17;;;;;;;22.33;19.20;;;;;;;;;;5012757;28;20050;-58
2021/12/05 15:20:46;;;;;;;23.05;20.70;;;;;;;;;;5013058;28;20053;-58
2021/12/05 15:23:14;;;;;;;23.83;20.88;;;;;;;;;;5013643;28;20049;-59
2021/12/05 15:25:42;;;;;;;25.30;21.92;;;;;;;;;;5012975;28;20534;-57
2021/12/05 15:28:11;;;;;;;24.85;21.20;;;;;;;;;;5013541;28;20046;-56
2021/12/05 15:30:43;;;;;;;23.25;19.80;;;;;;;;;;5011594;28;20408;-59
2021/12/05 15:33:16;;;;;;;29.55;22.48;;;;;;;;;;5010920;28;20081;-57
2021/12/05 15:35:43;;;;;;;26.38;21.52;;;;;;;;;;5011053;28;20045;-58
2021/12/05 15:38:13;;;;;;;25.30;19.67;;;;;;;;;;5010714;28;20076;-58
2021/12/05 15:40:46;;;;;;;23.38;20.02;;;;;;;;;;5011507;28;20062;-57
2021/12/05 15:43:17;;;;;;;26.20;20.67;;;;;;;;;;5012118;28;20041;-56
2021/12/05 15:45:46;;;;;;;24.92;22.35;;;;;;;;;;5012340;28;20061;-56
2021/12/05 15:48:28;;;;;;;24.38;20.98;;;;;;;;;;4994469;28;20050;-57
2021/12/05 15:50:56;;;;;;;22.92;19.88;;;;;;;;;;5012207;28;20547;-59
2021/12/05 15:53:25;;;;;;;26.27;21.17;;;;;;;;;;5011770;28;20042;-57
2021/12/05 15:55:59;;;;;;;24.90;21.52;;;;;;;;;;5012184;28;20125;-56
2021/12/05 15:58:37;;;;;;;26.55;22.25;;;;;;;;;;5012379;28;20049;-59
2021/12/05 16:01:13;;;;;;;26.20;21.35;;;;;;;;;;5010722;28;20125;-59
2021/12/05 16:03:43;;;;;;;28.90;22.02;;;;;;;;;;5009692;28;20556;-58
2021/12/05 16:06:13;;;;;;;25.08;21.52;;;;;;;;;;5012488;28;20045;-59
2021/12/05 16:08:42;;;;;;;24.15;20.80;;;;;;;;;;5010476;28;20904;-59
2021/12/05 16:11:20;;;;;;;34.60;23.13;;;;;;;;;;5011731;28;20062;-58
2021/12/05 16:13:51;;;;;;;27.23;22.42;;;;;;;;;;5012407;28;20078;-58
2021/12/05 16:16:23;;;;;;;28.08;23.98;;;;;;;;;;5011763;28;20489;-58
2021/12/05 16:18:56;;;;;;;23.63;21.02;;;;;;;;;;5012075;28;20046;-58
2021/12/05 16:21:28;;;;;;;28.17;21.73;;;;;;;;;;5011640;28;20374;-59
2021/12/05 16:24:03;;;;;;;29.27;22.05;;;;;;;;;;5012198;28;20151;-60
2021/12/05 16:26:30;;;;;;;26.73;22.55;;;;;;;;;;5011025;28;20045;-58
2021/12/05 16:29:25;;;;;;;26.17;22.33;;;;;;;;;;5012829;28;20053;-59
2021/12/05 16:31:57;;;;;;;28.58;23.02;;;;;;;;;;5001822;28;20057;-60
2021/12/05 16:34:28;;;;;;;37.08;27.85;;;;;;;;;;5015248;28;20041;-56
2021/12/05 16:36:59;;;;;;;34.88;25.55;;;;;;;;;;5014840;28;20125;-59
2021/12/05 16:39:54;;;;;;;32.28;26.65;;;;;;;;;;5015370;28;20424;-59
2021/12/05 16:42:22;;;;;;;;;;;;;;;;;;4996204;28;20061;-57
2021/12/05 16:44:52;;;;;;;35.45;29.50;;;;;;;;;;5015249;28;19925;-60
2021/12/05 16:47:21;;;;;;;35.22;27.67;;;;;;;;;;5014123;28;20555;-59
2021/12/05 16:49:52;;;;;;;33.40;29.40;;;;;;;;;;5002136;28;20977;-58
2021/12/05 16:52:25;;;;;;;29.15;25.20;;;;;;;;;;5001908;28;20508;-58
2021/12/05 16:54:59;;;;;;;26.77;23.77;;;;;;;;;;4998984;28;20044;-56
2021/12/05 16:57:32;;;;;;;26.80;22.33;;;;;;;;;;5005515;28;20045;-58
2021/12/05 17:00:20;;;;;;;25.95;21.15;;;;;;;;;;5008217;28;20042;-59
2021/12/05 17:02:55;;;;;;;27.85;21.10;;;;;;;;;;5008702;28;20077;-58
2021/12/05 17:05:26;;;;;;;25.58;21.60;;;;;;;;;;5013044;28;20034;-58
2021/12/05 17:08:07;;;;;;;24.30;20.08;;;;;;;;;;5010444;28;20053;-59
2021/12/05 17:10:41;;;;;;;24.52;20.35;;;;;;;;;;5010710;28;20058;-59
2021/12/05 17:13:09;;;;;;;25.38;22.58;;;;;;;;;;5005178;28;20042;-59
2021/12/05 17:15:44;;;;;;;27.17;23.83;;;;;;;;;;5006324;28;20124;-59
2021/12/05 17:18:17;;;;;;;28.42;22.88;;;;;;;;;;5008296;28;20065;-59
2021/12/05 17:20:48;;;;;;;31.17;24.15;;;;;;;;;;5000146;28;20081;-58
2021/12/05 17:23:41;;;;;;;26.25;22.48;;;;;;;;;;5008882;28;20042;-58
2021/12/05 17:26:13;;;;;;;27.33;24.25;;;;;;;;;;5009295;28;20049;-59
2021/12/05 17:28:44;;;;;;;34.33;24.83;;;;;;;;;;5012785;28;20081;-58
2021/12/05 17:31:14;;;;;;;28.05;24.88;;;;;;;;;;5011955;28;20104;-56
2021/12/05 17:33:47;;;;;;;31.88;26.98;;;;;;;;;;5008827;28;20133;-58
2021/12/05 17:36:20;;;;;;;36.30;27.58;;;;;;;;;;5006940;28;20536;-56
2021/12/05 17:38:48;;;;;;;36.55;30.15;;;;;;;;;;5012276;28;20045;-57
2021/12/05 17:41:16;;;;;;;33.28;29.15;;;;;;;;;;5008102;28;20042;-59
2021/12/05 17:43:43;;;;;;;33.40;28.23;;;;;;;;;;5011067;28;20551;-58
2021/12/05 17:46:10;;;;;;;33.00;29.48;;;;;;;;;;5012922;28;20041;-60
2021/12/05 17:48:38;;;;;;;38.35;31.05;;;;;;;;;;5012012;28;20048;-59
2021/12/05 17:51:06;;;;;;;36.53;30.90;;;;;;;;;;5013539;28;20046;-58
2021/12/05 17:53:37;;;;;;;37.15;31.88;;;;;;;;;;5008707;28;20585;-58
2021/12/05 17:56:16;;;;;;;36.13;31.38;;;;;;;;;;5011365;28;21214;-56
2021/12/05 18:03:56;;;;;;;33.40;28.92;;;;;;;;;;4997794;28;20428;-55
2021/12/05 18:06:24;;;;;;;31.52;28.15;;;;;;;;;;4998313;28;20050;-52
2021/12/05 18:08:51;;;;;;;31.70;28.17;;;;;;;;;;4996876;28;20038;-58
2021/12/05 18:11:24;;;;;;;32.63;26.77;;;;;;;;;;4995669;28;20038;-55
2021/12/05 18:13:55;;;;;;;39.42;28.85;;;;;;;;;;4998280;28;20049;-54
2021/12/05 18:16:23;;;;;;;33.13;26.63;;;;;;;;;;4995715;28;20074;-55
2021/12/05 18:18:56;;;;;;;32.17;26.40;;;;;;;;;;4997096;28;20042;-53
2021/12/05 18:21:25;;;;;;;30.85;27.40;;;;;;;;;;4993502;28;20034;-55
2021/12/05 18:23:54;;;;;;;35.38;29.67;;;;;;;;;;4993297;28;20041;-53
2021/12/05 18:26:22;;;;;;;31.48;28.13;;;;;;;;;;4993152;28;20437;-54
2021/12/05 18:28:49;;;;;;;44.05;33.55;;;;;;;;;;4994249;28;20054;-58
2021/12/05 18:31:25;;;;;;;34.13;27.92;;;;;;;;;;4994970;28;20044;-57
2021/12/05 18:33:57;;;;;;;30.42;26.48;;;;;;;;;;4994677;28;20046;-58
2021/12/05 18:36:25;;;;;;;30.80;25.02;;;;;;;;;;4998018;28;20050;-57
2021/12/05 18:38:52;;;;;;;30.88;26.60;;;;;;;;;;4995751;28;20096;-58
2021/12/05 18:41:20;;;;;;;29.45;25.67;;;;;;;;;;4997267;28;20057;-58
2021/12/05 18:43:48;;;;;;;32.17;27.55;;;;;;;;;;5005405;28;20042;-58
2021/12/05 18:46:16;;;;;;;30.45;27.08;;;;;;;;;;5002617;28;20054;-56
2021/12/05 18:48:43;;;;;;;31.15;27.85;;;;;;;;;;4995079;28;20089;-58
2021/12/05 18:51:11;;;;;;;35.88;28.63;;;;;;;;;;4997503;28;20060;-56
2021/12/05 18:53:38;;;;;;;31.23;27.10;;;;;;;;;;4998123;28;20384;-58
2021/12/05 18:56:05;;;;;;;32.83;26.20;;;;;;;;;;4994204;28;20104;-57
2021/12/05 18:58:33;;;;;;;30.92;26.95;;;;;;;;;;4998150;28;20045;-58
2021/12/05 19:06:45;;;;;;;32.80;25.67;;;;;;;;;;4993135;28;20054;-56
2021/12/05 19:09:39;;;;;;;30.23;24.98;;;;;;;;;;4998321;28;20145;-62
2021/12/05 19:12:01;;;;;;;32.55;26.15;;;;;;;;;;4982174;28;20049;-59
2021/12/05 19:14:41;;;;;;;33.60;27.42;;;;;;;;;;5000654;28;20043;-59
2021/12/05 19:17:22;;;;;;;34.65;27.63;;;;;;;;;;4998688;28;20034;-59
2021/12/05 19:19:52;;;;;;;30.40;26.27;;;;;;;;;;5000787;28;20487;-59
2021/12/05 19:22:24;;;;;;;33.67;29.25;;;;;;;;;;5002669;28;20046;-59
2021/12/05 19:24:52;;;;;;;32.67;27.13;;;;;;;;;;5008132;28;20117;-60
2021/12/05 19:27:20;;;;;;;35.45;26.83;;;;;;;;;;4998809;28;20048;-58
2021/12/05 19:29:48;;;;;;;31.75;27.65;;;;;;;;;;5000994;28;20050;-58
2021/12/05 19:32:16;;;;;;;33.03;29.25;;;;;;;;;;5000526;28;20049;-58
2021/12/05 19:34:44;;;;;;;33.53;28.27;;;;;;;;;;4997800;28;20120;-59
2021/12/05 19:37:11;;;;;;;32.95;27.90;;;;;;;;;;5007322;28;20054;-58
2021/12/05 19:39:38;;;;;;;41.30;29.73;;;;;;;;;;5007142;28;20045;-58
2021/12/05 19:42:07;;;;;;;33.95;28.80;;;;;;;;;;5006734;28;20041;-58
2021/12/05 19:44:34;;;;;;;33.00;28.05;;;;;;;;;;5001167;28;20496;-58
2021/12/05 19:47:03;;;;;;;37.20;30.48;;;;;;;;;;5009537;28;20038;-60
2021/12/05 19:49:32;;;;;;;39.65;31.75;;;;;;;;;;5006570;28;20046;-60
2021/12/05 19:52:00;;;;;;;34.00;29.13;;;;;;;;;;5007127;28;20042;-59
2021/12/05 19:54:27;;;;;;;34.80;28.67;;;;;;;;;;5006290;28;20492;-59
2021/12/05 19:56:54;;;;;;;37.30;30.48;;;;;;;;;;4990855;28;20046;-60
2021/12/05 19:59:21;;;;;;;39.58;30.83;;;;;;;;;;5009670;28;20053;-59
2021/12/05 20:01:52;;;;;;;39.40;32.42;;;;;;;;;;5003651;28;20053;-58
2021/12/05 20:04:20;;;;;;;40.63;32.42;;;;;;;;;;5007787;28;20038;-59
2021/12/05 20:06:49;;;;;;;45.05;33.30;;;;;;;;;;5006837;28;20049;-61
2021/12/05 20:09:18;;;;;;;39.10;31.05;;;;;;;;;;5004393;28;20053;-59
2021/12/05 20:11:46;;;;;;;38.92;32.78;;;;;;;;;;5005840;28;20046;-58
2021/12/05 20:14:13;;;;;;;40.03;32.92;;;;;;;;;;5004721;28;20092;-60
2021/12/05 20:16:41;;;;;;;37.90;31.38;;;;;;;;;;5003190;28;20046;-59
2021/12/05 20:19:08;;;;;;;37.65;32.65;;;;;;;;;;4990501;28;20045;-59
2021/12/05 20:21:40;;;;;;;39.75;31.90;;;;;;;;;;5003911;28;20044;-60
2021/12/05 20:24:09;;;;;;;41.85;33.80;;;;;;;;;;5001746;28;20030;-58